createdAt,value
2023-01-03T11:23:49.975Z,3.25
2023-01-03T11:29:06.367Z,3.20
2023-01-03T11:31:40.453Z,2.38
2023-01-03T11:34:17.407Z,2.35
2023-01-03T11:36:48.956Z,2.50
2023-01-03T11:39:26.517Z,2.70
2023-01-03T11:42:09.996Z,2.50
2023-01-03T11:44:55.901Z,2.53
2023-01-03T11:47:31.169Z,2.13
2023-01-03T11:50:08.415Z,3.05
2023-01-03T11:52:41.044Z,2.90
2023-01-03T11:55:26.539Z,3.20
2023-01-03T11:58:02.495Z,2.85
2023-01-03T12:00:34.288Z,2.45
2023-01-03T12:03:08.658Z,1.98
2023-01-03T12:05:43.934Z,2.15
2023-01-03T12:08:20.799Z,2.47
2023-01-03T12:10:52.141Z,1.98
2023-01-03T12:13:29.339Z,2.50
2023-01-03T12:16:03.249Z,2.35
2023-01-03T12:18:38.835Z,2.22
2023-01-03T12:21:08.339Z,2.20
2023-01-03T12:23:38.672Z,2.47
2023-01-03T12:26:08.950Z,1.90
2023-01-03T12:28:39.809Z,1.88
2023-01-03T12:31:12.029Z,2.17
2023-01-03T12:33:44.287Z,2.10
2023-01-03T12:36:19.680Z,2.28
2023-01-03T12:38:55.297Z,1.50
2023-01-03T12:41:29.073Z,2.88
2023-01-03T12:43:59.499Z,4.03
2023-01-03T12:46:29.865Z,2.92
2023-01-03T12:49:03.796Z,2.60
2023-01-03T12:51:32.409Z,1.80
2023-01-03T12:54:06.364Z,1.90
2023-01-03T12:56:46.109Z,1.98
2023-01-03T12:59:22.227Z,1.30
2023-01-03T13:01:53.617Z,1.95
2023-01-03T13:04:24.662Z,1.70
2023-01-03T13:06:54.472Z,1.73
2023-01-03T13:09:24.100Z,1.60
2023-01-03T13:11:53.026Z,1.55
2023-01-03T13:14:22.140Z,1.25
2023-01-03T13:16:50.716Z,1.75
2023-01-03T13:19:37.159Z,2.10
2023-01-03T13:22:19.127Z,1.75
2023-01-03T13:24:47.932Z,1.75
2023-01-03T13:27:23.024Z,1.92
2023-01-03T13:29:57.848Z,1.70
2023-01-03T13:32:26.313Z,1.85
2023-01-03T13:35:12.704Z,1.90
2023-01-03T13:37:45.750Z,2.33
2023-01-03T13:42:41.208Z,5.18
2023-01-03T13:45:27.655Z,3.90
2023-01-03T13:47:55.781Z,5.43
2023-01-03T13:50:25.533Z,5.13
2023-01-03T13:53:02.211Z,4.35
2023-01-03T13:55:37.139Z,3.38
2023-01-03T13:58:25.038Z,3.58
2023-01-03T14:00:53.232Z,2.90
2023-01-03T14:03:29.236Z,2.40
2023-01-03T14:06:11.946Z,1.77
2023-01-03T14:08:52.520Z,1.50
2023-01-03T14:11:27.673Z,1.77
2023-01-03T14:13:59.566Z,1.60
2023-01-03T14:16:28.949Z,1.80
2023-01-03T14:19:02.826Z,1.70
2023-01-03T14:21:37.328Z,4.15
2023-01-03T14:24:07.422Z,1.88
2023-01-03T14:26:35.176Z,2.72
2023-01-03T14:29:03.333Z,3.00
2023-01-03T14:31:35.508Z,2.60
2023-01-03T14:34:05.490Z,2.80
2023-01-03T14:36:47.919Z,3.22
2023-01-03T14:39:23.659Z,2.93
2023-01-03T14:41:51.408Z,2.60
2023-01-03T14:44:19.183Z,2.47
2023-01-03T14:46:50.731Z,1.85
2023-01-03T14:49:20.886Z,2.33
2023-01-03T14:51:48.986Z,2.30
2023-01-03T14:54:18.817Z,2.08
2023-01-03T14:56:48.059Z,2.50
2023-01-03T14:59:17.182Z,2.17
2023-01-03T15:01:45.515Z,2.25
2023-01-03T15:04:15.153Z,2.65
2023-01-03T15:07:01.544Z,2.92
2023-01-03T15:09:34.161Z,2.67
2023-01-03T15:12:05.309Z,2.13
2023-01-03T15:14:33.647Z,3.08
2023-01-03T15:17:02.784Z,2.38
2023-01-03T15:19:31.346Z,3.05
2023-01-03T15:22:08.346Z,2.53
2023-01-03T15:24:43.305Z,2.55
2023-01-03T15:27:30.399Z,3.40
2023-01-03T15:30:14.229Z,5.20
2023-01-03T15:32:46.404Z,4.20
2023-01-03T15:35:19.908Z,4.60
2023-01-03T15:37:47.946Z,5.13
2023-01-03T15:40:15.970Z,4.07
2023-01-03T15:43:02.633Z,4.97
2023-01-03T15:45:38.015Z,4.25
2023-01-03T15:48:13.493Z,5.00
2023-01-03T15:50:43.027Z,4.20
2023-01-03T15:53:24.501Z,4.97
2023-01-03T15:55:53.561Z,4.20
2023-01-03T15:58:21.331Z,4.70
2023-01-03T16:00:50.660Z,5.00
2023-01-03T16:03:19.176Z,5.47
2023-01-03T16:05:47.092Z,4.68
2023-01-03T16:08:19.875Z,4.78
2023-01-03T16:10:47.644Z,5.57
2023-01-03T16:13:15.770Z,4.82
2023-01-03T16:15:43.809Z,4.95
2023-01-03T16:18:14.599Z,5.35
2023-01-03T16:20:42.447Z,6.10
2023-01-03T16:23:16.817Z,7.65
2023-01-03T16:25:44.576Z,5.90
2023-01-03T16:28:12.718Z,5.82
2023-01-03T16:30:40.551Z,5.22
2023-01-03T16:33:10.090Z,4.55
2023-01-03T16:35:39.210Z,3.90
2023-01-03T16:38:06.986Z,3.83
2023-01-03T16:40:34.793Z,4.00
2023-01-03T16:43:02.752Z,3.72
2023-01-03T16:45:30.573Z,3.75
2023-01-03T16:47:58.423Z,3.47
2023-01-03T16:53:49.937Z,3.70
2023-01-03T16:56:17.696Z,3.45
2023-01-03T16:58:45.739Z,2.60
2023-01-03T17:01:14.447Z,3.28
2023-01-03T17:03:42.741Z,2.60
2023-01-03T17:06:21.866Z,2.50
2023-01-03T17:08:51.204Z,4.03
2023-01-03T17:11:19.036Z,4.00
2023-01-03T17:13:48.101Z,4.32
2023-01-03T17:16:17.109Z,4.50
2023-01-03T17:18:45.098Z,4.35
2023-01-03T17:21:16.378Z,5.00
2023-01-03T17:23:45.011Z,3.67
2023-01-03T17:26:16.537Z,4.20
2023-01-03T17:28:45.157Z,6.28
2023-01-03T17:31:15.907Z,5.90
2023-01-03T17:33:43.763Z,6.45
2023-01-03T17:36:13.805Z,4.60
2023-01-03T17:38:41.909Z,3.80
2023-01-03T17:41:15.670Z,4.13
2023-01-03T17:43:45.414Z,5.35
2023-01-03T17:46:34.347Z,5.10
2023-01-03T17:49:19.884Z,3.65
2023-01-03T17:51:47.643Z,2.63
2023-01-03T17:54:16.023Z,3.95
2023-01-03T17:56:43.940Z,3.20
2023-01-03T17:59:14.384Z,2.50
2023-01-03T18:01:42.623Z,2.80
2023-01-03T18:04:11.235Z,3.05
2023-01-03T18:06:39.875Z,4.70
2023-01-03T18:09:11.090Z,2.50
2023-01-03T18:11:39.313Z,2.55
2023-01-03T18:14:07.059Z,2.65
2023-01-03T18:16:36.449Z,2.85
2023-01-03T18:19:04.223Z,2.67
2023-01-03T18:21:33.823Z,2.97
2023-01-03T18:24:02.950Z,2.38
2023-01-03T18:26:32.776Z,3.40
2023-01-03T18:29:00.805Z,3.35
2023-01-03T18:31:28.594Z,2.38
2023-01-03T18:33:58.225Z,2.83
2023-01-03T18:36:27.148Z,3.03
2023-01-03T18:39:01.160Z,4.28
2023-01-03T18:41:29.927Z,3.90
2023-01-03T18:43:57.692Z,4.57
2023-01-03T18:46:26.514Z,5.50
2023-01-03T18:48:54.568Z,4.75
2023-01-03T18:51:25.192Z,3.60
2023-01-03T18:53:55.008Z,3.67
2023-01-03T18:56:28.308Z,3.47
2023-01-03T18:59:01.874Z,2.95
2023-01-03T19:01:30.587Z,3.67
2023-01-03T19:03:58.996Z,4.13
2023-01-03T19:06:30.776Z,3.72
2023-01-03T19:09:02.114Z,4.13
2023-01-03T19:11:31.121Z,4.78
2023-01-03T19:14:01.299Z,5.03
2023-01-03T19:16:30.968Z,4.43
2023-01-03T19:18:58.943Z,4.75
2023-01-03T19:21:31.350Z,4.80
2023-01-03T19:24:01.270Z,4.03
2023-01-03T19:26:30.658Z,4.80
2023-01-03T19:29:00.305Z,4.68
2023-01-03T19:31:29.007Z,4.47
2023-01-03T19:33:57.014Z,4.00
2023-01-03T19:36:25.182Z,3.92
2023-01-03T19:38:54.489Z,5.65
2023-01-03T19:41:22.488Z,4.45
2023-01-03T19:43:50.710Z,4.28
2023-01-03T19:46:18.888Z,4.20
2023-01-03T19:48:46.668Z,4.50
2023-01-03T19:51:14.670Z,4.45
2023-01-03T19:53:43.076Z,4.75
2023-01-03T19:56:22.471Z,4.30
2023-01-03T19:58:50.639Z,4.47
2023-01-03T20:01:20.424Z,4.80
2023-01-03T20:03:49.353Z,4.85
2023-01-03T20:06:17.895Z,4.07
2023-01-03T20:08:46.269Z,4.30
2023-01-03T20:11:16.434Z,5.03
2023-01-03T20:13:47.132Z,5.15
2023-01-03T20:16:15.740Z,4.15
2023-01-03T20:18:43.940Z,4.38
2023-01-03T20:21:21.431Z,4.90
2023-01-03T20:23:52.516Z,4.70
2023-01-03T20:26:23.013Z,4.72
2023-01-03T20:28:52.794Z,4.15
2023-01-03T20:31:21.158Z,4.93
2023-01-03T20:33:49.458Z,5.60
2023-01-03T20:36:23.144Z,4.25
2023-01-03T20:38:56.869Z,4.25
2023-01-03T20:44:07.316Z,4.22
2023-01-03T20:46:35.313Z,6.38
2023-01-03T20:49:05.481Z,5.78
2023-01-03T20:51:35.026Z,4.47
2023-01-03T20:54:02.853Z,4.72
2023-01-03T20:56:32.855Z,4.65
2023-01-03T20:59:00.931Z,5.03
2023-01-03T21:01:31.046Z,5.38
2023-01-03T21:04:01.885Z,4.72
2023-01-03T21:06:30.307Z,5.03
2023-01-03T21:08:58.010Z,4.80
2023-01-03T21:11:27.007Z,5.65
2023-01-03T21:13:55.143Z,5.55
2023-01-03T21:16:29.414Z,5.40
2023-01-03T21:19:01.684Z,5.25
2023-01-03T21:21:31.081Z,5.70
2023-01-03T21:23:59.371Z,5.88
2023-01-03T21:26:27.172Z,5.50
2023-01-03T21:28:57.476Z,5.97
2023-01-03T21:31:25.318Z,6.05
2023-01-03T21:33:53.677Z,5.38
2023-01-03T21:36:24.737Z,6.47
2023-01-03T21:38:53.067Z,6.00
2023-01-03T21:41:22.575Z,5.90
2023-01-03T21:43:50.373Z,6.20
2023-01-03T21:46:18.903Z,5.70
2023-01-03T21:48:47.058Z,5.65
2023-01-03T21:51:22.159Z,5.35
2023-01-03T21:53:56.597Z,4.95
2023-01-03T21:56:26.347Z,5.22
2023-01-03T21:58:54.209Z,4.80
2023-01-03T22:01:23.273Z,5.05
2023-01-03T22:04:08.939Z,6.30
2023-01-03T22:06:36.740Z,6.93
2023-01-03T22:09:26.232Z,8.18
2023-01-03T22:11:54.058Z,6.45
2023-01-03T22:14:21.817Z,6.50
2023-01-03T22:16:49.983Z,6.10
2023-01-03T22:19:18.016Z,5.90
2023-01-03T22:21:45.737Z,6.10
2023-01-03T22:24:15.046Z,6.70
2023-01-03T22:26:42.972Z,6.82
2023-01-03T22:29:10.726Z,7.07
2023-01-03T22:31:38.744Z,6.20
2023-01-03T22:34:06.485Z,6.43
2023-01-03T22:36:34.240Z,5.20
2023-01-03T22:39:02.314Z,5.20
2023-01-03T22:41:31.428Z,5.55
2023-01-03T22:43:59.460Z,5.07
2023-01-03T22:46:27.544Z,4.60
2023-01-03T22:48:56.736Z,4.80
2023-01-03T22:51:24.776Z,4.95
2023-01-03T22:53:52.615Z,4.90
2023-01-03T22:56:20.512Z,4.68
2023-01-03T22:58:49.984Z,4.47
2023-01-03T23:01:20.498Z,4.72
2023-01-03T23:03:48.532Z,4.40
2023-01-03T23:06:17.553Z,4.30
2023-01-03T23:08:47.489Z,4.63
2023-01-03T23:11:35.118Z,4.15
2023-01-03T23:14:06.383Z,4.03
2023-01-03T23:16:34.661Z,3.90
2023-01-03T23:19:03.400Z,4.78
2023-01-03T23:21:31.644Z,5.07
2023-01-03T23:23:59.626Z,4.70
2023-01-03T23:26:27.851Z,3.60
2023-01-03T23:28:56.060Z,4.05
2023-01-03T23:31:27.856Z,4.15
2023-01-03T23:33:56.178Z,4.07
2023-01-03T23:36:24.377Z,3.72
2023-01-03T23:38:52.594Z,4.18
2023-01-03T23:41:21.607Z,4.75
2023-01-03T23:43:49.984Z,3.72
2023-01-03T23:46:20.126Z,3.70
2023-01-03T23:48:49.730Z,4.53
2023-01-03T23:51:17.772Z,4.35
2023-01-03T23:53:45.718Z,3.78
2023-01-03T23:56:14.801Z,3.60
2023-01-03T23:58:42.993Z,4.07
